Time;durP1;ratioP1;P1;durP2;ratioP2;P2;SDS_P1;SDS_P2;PMS_P1;PMS_P2;Temp;Humidity;BMP_temperature;BMP_pressure;BME280_temperature;BME280_humidity;BME280_pressure;Samples;Min_cycle;Max_cycle;Signal;HPM_P1;HPM_P2
2022/09/13 00:00:31;;;;;;;;;;;11.00;99.90;;;;;;5048022;28;19979;-81
2022/09/13 00:02:57;;;;;;;;;;;11.00;99.90;;;;;;5048725;28;20538;-81
2022/09/13 00:05:22;;;;;;;;;;;11.00;99.90;;;;;;5043814;28;19962;-81
2022/09/13 00:07:48;;;;;;;;;;;11.00;99.90;;;;;;5048551;28;19963;-81
2022/09/13 00:10:14;;;;;;;;;;;11.00;99.90;;;;;;5051098;28;19920;-81
2022/09/13 00:12:39;;;;;;;;;;;11.00;99.90;;;;;;5051169;28;19921;-81
2022/09/13 00:15:05;;;;;;;;;;;11.10;99.90;;;;;;5049793;28;19935;-80
2022/09/13 00:17:30;;;;;;;;;;;11.20;99.90;;;;;;5048520;28;19916;-81
2022/09/13 00:19:56;;;;;;;;;;;11.10;99.90;;;;;;5050004;28;19960;-81
2022/09/13 00:22:21;;;;;;;;;;;11.20;99.90;;;;;;5051022;28;20249;-81
2022/09/13 00:24:47;;;;;;;;;;;11.10;99.90;;;;;;5045386;28;19952;-81
2022/09/13 00:27:12;;;;;;;;;;;11.10;99.90;;;;;;5038002;28;19912;-81
2022/09/13 00:29:38;;;;;;;;;;;11.10;99.90;;;;;;5039536;28;19942;-81
2022/09/13 00:32:04;;;;;;;;;;;11.00;99.90;;;;;;5060860;28;20272;-81
2022/09/13 00:34:29;;;;;;;;;;;10.90;99.90;;;;;;5060905;28;19917;-80
2022/09/13 00:36:55;;;;;;;;;;;10.90;99.90;;;;;;5061296;28;19916;-80
2022/09/13 00:39:21;;;;;;;;;;;10.90;99.90;;;;;;5053216;28;19916;-81
2022/09/13 00:41:47;;;;;;;;;;;10.80;99.90;;;;;;5037543;28;19952;-80
2022/09/13 00:44:31;;;;;;;;;;;10.80;99.90;;;;;;5049172;28;20376;-81
2022/09/13 00:46:57;;;;;;;;;;;10.80;99.90;;;;;;5048467;28;19935;-81
2022/09/13 00:49:26;;;;;;;;;;;10.70;99.90;;;;;;5042644;28;20431;-81
2022/09/13 00:51:54;;;;;;;;;;;10.70;99.90;;;;;;5041187;28;19917;-81
2022/09/13 00:54:21;;;;;;;;;;;10.70;99.90;;;;;;5048350;28;20391;-81
2022/09/13 00:56:49;;;;;;;;;;;10.70;99.90;;;;;;5050006;28;20438;-81
2022/09/13 00:59:18;;;;;;;;;;;10.70;99.90;;;;;;5038392;28;19913;-81
2022/09/13 01:01:46;;;;;;;;;;;10.60;99.90;;;;;;5045039;28;20380;-81
2022/09/13 01:04:12;;;;;;;;;;;10.60;99.90;;;;;;5049275;28;19916;-80
2022/09/13 01:06:39;;;;;;;;;;;10.50;99.90;;;;;;5048462;28;19909;-81
2022/09/13 01:09:05;;;;;;;;;;;10.50;99.90;;;;;;5044984;28;19909;-81
2022/09/13 01:11:30;;;;;;;;;;;10.40;99.90;;;;;;5060625;28;20287;-81
2022/09/13 01:13:57;;;;;;;;;;;10.40;99.90;;;;;;5037597;28;20424;-81
2022/09/13 01:16:22;;;;;;;;;;;10.40;99.90;;;;;;5040201;28;19922;-81
2022/09/13 01:18:48;;;;;;;;;;;10.40;99.90;;;;;;5049725;28;19924;-81
2022/09/13 01:21:32;;;;;;;;;;;10.40;99.90;;;;;;5049274;28;20434;-81
2022/09/13 01:23:58;;;;;;;;;;;10.40;99.90;;;;;;5045049;28;19919;-81
2022/09/13 01:26:38;;;;;;;;;;;10.50;99.90;;;;;;5046201;28;19972;-81
2022/09/13 01:29:20;;;;;;;;;;;10.50;99.90;;;;;;5045032;28;19912;-82
2022/09/13 01:32:06;;;;;;;;;;;10.50;99.90;;;;;;5048248;28;19923;-81
2022/09/13 01:34:44;;;;;;;;;;;10.50;99.90;;;;;;5043315;28;19908;-81
2022/09/13 01:37:18;;;;;;;;;;;10.70;99.90;;;;;;5045786;28;19909;-81
2022/09/13 01:39:50;;;;;;;;;;;10.60;99.90;;;;;;5040942;28;19909;-81
2022/09/13 01:42:21;;;;;;;;;;;10.50;99.90;;;;;;5046077;28;19987;-81
2022/09/13 01:45:13;;;;;;;;;;;10.50;99.90;;;;;;5043471;28;19947;-81
2022/09/13 01:47:57;;;;;;;;;;;10.40;99.90;;;;;;5039122;28;19912;-81
2022/09/13 01:50:32;;;;;;;;;;;10.40;99.90;;;;;;5038523;28;19978;-81
2022/09/13 01:53:04;;;;;;;;;;;10.40;99.90;;;;;;5038257;28;20379;-81
2022/09/13 01:55:43;;;;;;;;;;;10.30;99.90;;;;;;5044492;28;19917;-80
2022/09/13 01:58:08;;;;;;;;;;;10.30;99.90;;;;;;5046852;28;19919;-81
2022/09/13 02:00:38;;;;;;;;;;;10.30;99.90;;;;;;5040951;28;19920;-80
2022/09/13 02:03:06;;;;;;;;;;;10.20;99.90;;;;;;5045158;28;19931;-80
2022/09/13 02:05:40;;;;;;;;;;;10.30;99.90;;;;;;5049201;28;20338;-80
2022/09/13 02:08:08;;;;;;;;;;;10.30;99.90;;;;;;5036128;28;19909;-81
2022/09/13 02:10:36;;;;;;;;;;;10.20;99.90;;;;;;5047331;28;20407;-83
2022/09/13 02:13:04;;;;;;;;;;;10.10;99.90;;;;;;5046027;28;20365;-80
2022/09/13 02:15:38;;;;;;;;;;;10.10;99.90;;;;;;5038828;28;19913;-80
2022/09/13 02:18:05;;;;;;;;;;;10.00;99.90;;;;;;5046542;28;19908;-80
2022/09/13 02:20:34;;;;;;;;;;;10.00;99.90;;;;;;5047846;28;20360;-84
2022/09/13 02:23:01;;;;;;;;;;;10.00;99.90;;;;;;5038064;28;19916;-80
2022/09/13 02:25:29;;;;;;;;;;;10.00;99.90;;;;;;5043471;28;19909;-81
2022/09/13 02:27:57;;;;;;;;;;;10.00;99.90;;;;;;5040434;28;19913;-81
2022/09/13 02:30:23;;;;;;;;;;;10.00;99.90;;;;;;5042873;28;19909;-80
2022/09/13 02:32:52;;;;;;;;;;;10.00;99.90;;;;;;5042810;28;19921;-80
2022/09/13 02:35:38;;;;;;;;;;;10.00;99.90;;;;;;5052190;28;20003;-82
2022/09/13 02:38:04;;;;;;;;;;;10.00;99.90;;;;;;5039090;28;19932;-80
2022/09/13 02:40:39;;;;;;;;;;;10.00;99.90;;;;;;5047684;28;19939;-81
2022/09/13 02:43:10;;;;;;;;;;;9.90;99.90;;;;;;5040648;28;19913;-80
2022/09/13 02:45:41;;;;;;;;;;;9.90;99.90;;;;;;5041263;28;19920;-80
2022/09/13 02:48:11;;;;;;;;;;;9.90;99.90;;;;;;5051606;28;19978;-80
2022/09/13 02:51:00;;;;;;;;;;;9.90;99.90;;;;;;5051277;28;19908;-81
2022/09/13 02:53:43;;;;;;;;;;;9.90;99.90;;;;;;5035746;28;19919;-81
2022/09/13 02:56:20;;;;;;;;;;;10.00;99.90;;;;;;5045709;28;19915;-81
2022/09/13 02:58:57;;;;;;;;;;;10.00;99.90;;;;;;5045150;28;19919;-81
2022/09/13 03:01:23;;;;;;;;;;;9.90;99.90;;;;;;5048608;28;19917;-81
2022/09/13 03:03:50;;;;;;;;;;;9.90;99.90;;;;;;5042715;28;19919;-81
2022/09/13 03:06:22;;;;;;;;;;;9.90;99.90;;;;;;5049709;28;20418;-81
2022/09/13 03:08:48;;;;;;;;;;;9.80;99.90;;;;;;5044825;28;19919;-81
2022/09/13 03:11:17;;;;;;;;;;;9.80;99.90;;;;;;5051841;28;19995;-80
2022/09/13 03:14:01;;;;;;;;;;;9.70;99.90;;;;;;5039441;28;19966;-81
2022/09/13 03:16:43;;;;;;;;;;;9.70;99.90;;;;;;5040354;28;19909;-81
2022/09/13 03:19:27;;;;;;;;;;;9.70;99.90;;;;;;5049586;28;19917;-81
2022/09/13 03:22:08;;;;;;;;;;;9.70;99.90;;;;;;5047677;28;19959;-81
2022/09/13 03:24:54;;;;;;;;;;;9.60;99.90;;;;;;5043156;28;19909;-81
2022/09/13 03:27:43;;;;;;;;;;;9.70;99.90;;;;;;5012800;28;19909;-81
2022/09/13 03:30:12;;;;;;;;;;;9.70;99.90;;;;;;5057809;28;19912;-81
2022/09/13 03:32:40;;;;;;;;;;;9.70;99.90;;;;;;5047318;28;19920;-81
2022/09/13 03:35:15;;;;;;;;;;;9.70;99.90;;;;;;5043225;28;19913;-81
2022/09/13 03:37:52;;;;;;;;;;;9.80;99.90;;;;;;5051500;28;19912;-81
2022/09/13 03:40:23;;;;;;;;;;;9.70;99.90;;;;;;5053157;28;19897;-81
2022/09/13 03:42:53;;;;;;;;;;;9.70;99.90;;;;;;5049388;28;19913;-81
2022/09/13 03:45:23;;;;;;;;;;;9.70;99.90;;;;;;5052731;28;19920;-81
2022/09/13 03:47:49;;;;;;;;;;;9.70;99.90;;;;;;5045798;28;19952;-81
2022/09/13 03:50:19;;;;;;;;;;;9.70;99.90;;;;;;5040130;28;19916;-81
2022/09/13 03:52:46;;;;;;;;;;;9.70;99.90;;;;;;5038425;28;19920;-81
2022/09/13 03:55:12;;;;;;;;;;;9.70;99.90;;;;;;5046181;28;19959;-81
2022/09/13 03:57:37;;;;;;;;;;;9.80;99.90;;;;;;5050123;28;19955;-81
2022/09/13 04:00:03;;;;;;;;;;;9.80;99.90;;;;;;5049687;28;19993;-82
2022/09/13 04:02:28;;;;;;;;;;;9.70;99.90;;;;;;5024058;28;19912;-80
2022/09/13 04:04:55;;;;;;;;;;;9.80;99.90;;;;;;5051052;28;19971;-81
2022/09/13 04:07:21;;;;;;;;;;;9.80;99.90;;;;;;5050646;28;20383;-82
2022/09/13 04:09:47;;;;;;;;;;;9.80;99.90;;;;;;5043780;28;20352;-81
2022/09/13 04:12:13;;;;;;;;;;;9.70;99.90;;;;;;5044873;28;20069;-83
2022/09/13 04:14:39;;;;;;;;;;;9.70;99.90;;;;;;5047405;28;19917;-81
2022/09/13 04:17:06;;;;;;;;;;;9.70;99.90;;;;;;5049763;28;19912;-81
2022/09/13 04:19:32;;;;;;;;;;;9.70;99.90;;;;;;5046724;28;19913;-83
2022/09/13 04:21:57;;;;;;;;;;;9.80;99.90;;;;;;5031663;28;19924;-81
2022/09/13 04:24:24;;;;;;;;;;;9.80;99.90;;;;;;5041350;28;19924;-81
2022/09/13 04:26:50;;;;;;;;;;;9.80;99.90;;;;;;5035203;28;19917;-81
2022/09/13 04:29:19;;;;;;;;;;;9.80;99.90;;;;;;5027564;28;20587;-81
2022/09/13 04:31:44;;;;;;;;;;;9.70;99.90;;;;;;5028463;28;20003;-81
2022/09/13 04:34:10;;;;;;;;;;;9.70;99.90;;;;;;5032943;28;20016;-82
2022/09/13 04:36:36;;;;;;;;;;;9.70;99.90;;;;;;5043384;28;20334;-81
2022/09/13 04:39:02;;;;;;;;;;;9.70;99.90;;;;;;5041204;28;19924;-87
2022/09/13 04:41:28;;;;;;;;;;;9.70;99.90;;;;;;5043632;28;19928;-82
2022/09/13 04:43:53;;;;;;;;;;;9.60;99.90;;;;;;5019663;28;20007;-81
2022/09/13 04:46:19;;;;;;;;;;;9.70;99.90;;;;;;5042888;28;20380;-81
2022/09/13 04:48:49;;;;;;;;;;;9.70;99.90;;;;;;5040484;28;20011;-81
2022/09/13 04:51:14;;;;;;;;;;;9.70;99.90;;;;;;5043057;28;19912;-81
2022/09/13 04:53:40;;;;;;;;;;;9.70;99.90;;;;;;5041906;28;20342;-81
2022/09/13 04:56:06;;;;;;;;;;;9.70;99.90;;;;;;5034402;28;19997;-81
2022/09/13 04:58:31;;;;;;;;;;;9.70;99.90;;;;;;5032529;28;19970;-82
2022/09/13 05:01:04;;;;;;;;;;;9.70;99.90;;;;;;5036121;28;19913;-81
2022/09/13 05:03:30;;;;;;;;;;;9.80;99.90;;;;;;5029600;28;20011;-80
2022/09/13 05:06:10;;;;;;;;;;;9.90;99.90;;;;;;5042698;28;20164;-81
2022/09/13 05:08:35;;;;;;;;;;;9.90;99.90;;;;;;5035958;28;20384;-83
2022/09/13 05:11:01;;;;;;;;;;;10.00;99.90;;;;;;5036255;28;19916;-85
2022/09/13 05:13:27;;;;;;;;;;;10.00;99.90;;;;;;5033270;28;19916;-83
2022/09/13 05:15:56;;;;;;;;;;;10.10;99.90;;;;;;5040559;28;20719;-84
2022/09/13 05:18:24;;;;;;;;;;;10.10;99.90;;;;;;5047808;28;19920;-84
2022/09/13 05:20:52;;;;;;;;;;;10.20;99.90;;;;;;5027937;28;20407;-84
2022/09/13 05:23:18;;;;;;;;;;;10.20;99.90;;;;;;5049113;28;19954;-84
2022/09/13 05:25:43;;;;;;;;;;;10.30;99.90;;;;;;5046254;28;19959;-84
2022/09/13 05:28:10;;;;;;;;;;;10.30;99.90;;;;;;5018644;28;19913;-84
2022/09/13 05:30:36;;;;;;;;;;;10.40;99.90;;;;;;5040706;28;19912;-84
2022/09/13 05:33:02;;;;;;;;;;;10.50;99.90;;;;;;5040850;28;19917;-84
2022/09/13 05:35:28;;;;;;;;;;;10.50;99.90;;;;;;5039251;28;20011;-83
2022/09/13 05:37:54;;;;;;;;;;;10.60;99.90;;;;;;5036590;28;20012;-84
2022/09/13 05:40:19;;;;;;;;;;;10.70;99.90;;;;;;5037188;28;19996;-83
2022/09/13 05:42:44;;;;;;;;;;;10.80;99.90;;;;;;5041091;28;19928;-84
2022/09/13 05:45:10;;;;;;;;;;;10.90;99.90;;;;;;5032041;28;19912;-84
2022/09/13 05:47:36;;;;;;;;;;;11.00;99.90;;;;;;5039459;28;20015;-84
2022/09/13 05:50:01;;;;;;;;;;;11.20;99.90;;;;;;5043600;28;19923;-84
2022/09/13 05:52:27;;;;;;;;;;;11.30;99.90;;;;;;5045686;28;20058;-85
2022/09/13 05:54:52;;;;;;;;;;;11.40;99.90;;;;;;5045152;28;19959;-84
2022/09/13 05:57:18;;;;;;;;;;;11.60;99.90;;;;;;5046914;28;19981;-84
2022/09/13 05:59:43;;;;;;;;;;;11.70;99.90;;;;;;5055663;28;19923;-85
2022/09/13 06:02:09;;;;;;;;;;;11.70;99.90;;;;;;5034710;28;19920;-79
2022/09/13 06:04:34;;;;;;;;;;;11.80;99.90;;;;;;5045744;28;19980;-79
2022/09/13 06:07:00;;;;;;;;;;;11.80;99.90;;;;;;5044529;28;20376;-79
2022/09/13 06:09:25;;;;;;;;;;;11.90;99.90;;;;;;5047653;28;20394;-78
2022/09/13 06:11:51;;;;;;;;;;;12.00;99.90;;;;;;5044520;28;19919;-83
2022/09/13 06:14:16;;;;;;;;;;;12.00;99.90;;;;;;5048199;28;19913;-84
2022/09/13 06:16:42;;;;;;;;;;;12.10;99.90;;;;;;5045647;28;20364;-86
2022/09/13 06:19:07;;;;;;;;;;;12.20;99.90;;;;;;5048588;28;19917;-84
2022/09/13 06:21:33;;;;;;;;;;;12.30;99.90;;;;;;5044128;28;19916;-84
2022/09/13 06:23:59;;;;;;;;;;;12.40;99.90;;;;;;5041217;28;19951;-82
2022/09/13 06:26:25;;;;;;;;;;;12.50;99.90;;;;;;5035832;28;19916;-83
2022/09/13 06:28:52;;;;;;;;;;;12.60;99.90;;;;;;5044303;28;19947;-83
2022/09/13 06:31:19;;;;;;;;;;;12.70;99.90;;;;;;5046975;28;20214;-83
2022/09/13 06:33:44;;;;;;;;;;;12.90;99.90;;;;;;5048858;28;19921;-82
2022/09/13 06:36:17;;;;;;;;;;;13.00;99.90;;;;;;5049073;28;19923;-84
2022/09/13 06:38:43;;;;;;;;;;;13.10;99.90;;;;;;5047986;28;19913;-83
2022/09/13 06:41:11;;;;;;;;;;;13.20;99.90;;;;;;5062911;28;19921;-82
2022/09/13 06:43:37;;;;;;;;;;;13.30;99.90;;;;;;5061424;28;19917;-83
2022/09/13 06:46:05;;;;;;;;;;;13.40;99.90;;;;;;5046561;28;19912;-83
2022/09/13 06:48:31;;;;;;;;;;;13.50;99.90;;;;;;5033159;28;19917;-83
2022/09/13 06:50:57;;;;;;;;;;;13.50;99.90;;;;;;5030243;28;19924;-83
2022/09/13 06:53:23;;;;;;;;;;;13.60;99.90;;;;;;5047109;28;20392;-83
2022/09/13 06:55:48;;;;;;;;;;;13.70;99.90;;;;;;5041715;28;19938;-83
2022/09/13 06:58:14;;;;;;;;;;;13.80;99.90;;;;;;5045537;28;19912;-83
2022/09/13 07:00:40;;;;;;;;;;;13.90;99.90;;;;;;5049040;28;20034;-83
2022/09/13 07:03:05;;;;;;;;;;;14.10;99.90;;;;;;5048367;28;19916;-84
2022/09/13 07:05:31;;;;;;;;;;;14.20;99.90;;;;;;5045549;28;19997;-84
2022/09/13 07:07:56;;;;;;;;;;;14.30;99.90;;;;;;5039607;28;20448;-83
2022/09/13 07:10:22;;;;;;;;;;;14.40;99.90;;;;;;5034539;28;19913;-84
2022/09/13 07:12:47;;;;;;;;;;;14.50;99.90;;;;;;5032232;28;19921;-82
2022/09/13 07:15:13;;;;;;;;;;;14.60;99.90;;;;;;5036217;28;19919;-83
2022/09/13 07:17:38;;;;;;;;;;;14.70;99.90;;;;;;5036328;28;20019;-82
2022/09/13 07:20:06;;;;;;;;;;;14.80;99.90;;;;;;5039983;28;20365;-83
2022/09/13 07:22:31;;;;;;;;;;;14.90;99.90;;;;;;5040641;28;19916;-83
2022/09/13 07:24:57;;;;;;;;;;;15.00;99.90;;;;;;5040804;28;19924;-84
2022/09/13 07:27:22;;;;;;;;;;;15.10;99.90;;;;;;5047618;28;19913;-83
2022/09/13 07:29:49;;;;;;;;;;;15.20;99.90;;;;;;5036431;28;20005;-82
2022/09/13 07:32:14;;;;;;;;;;;15.30;99.90;;;;;;5040593;28;19925;-91
2022/09/13 07:34:40;;;;;;;;;;;15.40;99.90;;;;;;5033367;28;19963;-93
2022/09/13 07:37:05;;;;;;;;;;;15.60;99.90;;;;;;5033218;28;19924;-84
2022/09/13 07:39:31;;;;;;;;;;;15.70;99.90;;;;;;5049707;28;19917;-83
2022/09/13 07:41:56;;;;;;;;;;;15.80;99.90;;;;;;5039591;28;20377;-83
2022/09/13 07:44:22;;;;;;;;;;;15.90;99.90;;;;;;5049864;28;19913;-83
2022/09/13 07:46:48;;;;;;;;;;;16.00;99.90;;;;;;5057879;28;19922;-83
2022/09/13 07:49:15;;;;;;;;;;;16.10;99.90;;;;;;5038274;28;19917;-82
2022/09/13 07:51:42;;;;;;;;;;;16.40;99.90;;;;;;5035033;28;19996;-82
2022/09/13 07:54:12;;;;;;;;;;;16.50;99.90;;;;;;5039843;28;19917;-84
2022/09/13 07:56:38;;;;;;;;;;;16.60;99.90;;;;;;5037280;28;19944;-84
2022/09/13 07:59:04;;;;;;;;;;;16.70;99.90;;;;;;5045220;28;20621;-84
2022/09/13 08:01:34;;;;;;;;;;;16.90;99.90;;;;;;5039983;28;20611;-84
2022/09/13 08:04:01;;;;;;;;;;;17.10;99.90;;;;;;5035445;28;19936;-83
2022/09/13 08:06:28;;;;;;;;;;;17.10;99.90;;;;;;5033321;28;19916;-83
2022/09/13 08:08:53;;;;;;;;;;;17.30;99.90;;;;;;5042554;28;20403;-81
2022/09/13 08:11:20;;;;;;;;;;;17.40;99.90;;;;;;5040480;28;19961;-82
2022/09/13 08:13:46;;;;;;;;;;;17.50;99.90;;;;;;5032350;28;19921;-83
2022/09/13 08:16:12;;;;;;;;;;;17.70;99.90;;;;;;5040130;28;20424;-82
2022/09/13 08:18:42;;;;;;;;;;;17.90;99.90;;;;;;5038080;28;19963;-82
2022/09/13 08:21:07;;;;;;;;;;;18.00;99.90;;;;;;5048118;28;19920;-83
2022/09/13 08:23:33;;;;;;;;;;;18.00;99.90;;;;;;5040191;28;19913;-83
2022/09/13 08:26:02;;;;;;;;;;;18.00;99.90;;;;;;5032327;28;20372;-84
2022/09/13 08:28:30;;;;;;;;;;;18.20;99.90;;;;;;5045281;28;19959;-85
2022/09/13 08:30:56;;;;;;;;;;;18.50;99.90;;;;;;5043077;28;20455;-80
2022/09/13 08:33:21;;;;;;;;;;;18.60;99.90;;;;;;5049560;28;20015;-81
2022/09/13 08:35:51;;;;;;;;;;;18.60;99.90;;;;;;5037870;28;19916;-81
2022/09/13 08:38:17;;;;;;;;;;;18.80;99.90;;;;;;5045828;28;19913;-80
2022/09/13 08:40:44;;;;;;;;;;;19.10;99.90;;;;;;5047242;28;20044;-81
2022/09/13 08:43:30;;;;;;;;;;;19.10;99.90;;;;;;5045903;28;20312;-81
2022/09/13 08:46:01;;;;;;;;;;;19.30;99.90;;;;;;5040714;28;19908;-81
2022/09/13 08:48:34;;;;;;;;;;;19.60;99.90;;;;;;5045704;28;19924;-81
2022/09/13 08:51:02;;;;;;;;;;;19.80;98.70;;;;;;5045032;28;19912;-81
2022/09/13 08:53:29;;;;;;;;;;;20.00;97.70;;;;;;5043077;28;19920;-81
2022/09/13 08:56:03;;;;;;;;;;;20.40;98.20;;;;;;5044282;28;20664;-81
2022/09/13 08:58:29;;;;;;;;;;;20.10;96.20;;;;;;5045136;28;20013;-81
2022/09/13 09:01:21;;;;;;;;;;;20.30;95.90;;;;;;5046631;28;20184;-81
2022/09/13 09:04:00;;;;;;;;;;;20.60;97.90;;;;;;5028998;28;19908;-81
2022/09/13 09:06:26;;;;;;;;;;;20.60;98.30;;;;;;5036857;28;20649;-81
2022/09/13 09:09:15;;;;;;;;;;;20.60;96.80;;;;;;5042760;28;20372;-81
2022/09/13 09:11:50;;;;;;;;;;;20.60;95.40;;;;;;5033847;28;20417;-84
2022/09/13 09:14:30;;;;;;;;;;;20.70;95.70;;;;;;5042304;28;19921;-84
2022/09/13 09:16:59;;;;;;;;;;;20.90;94.90;;;;;;5049059;28;19919;-83
2022/09/13 09:19:33;;;;;;;;;;;20.80;94.30;;;;;;5038684;28;19923;-84
2022/09/13 09:22:00;;;;;;;;;;;20.80;96.10;;;;;;5039300;28;19913;-85
2022/09/13 09:24:26;;;;;;;;;;;21.20;94.40;;;;;;5035268;28;19913;-84
2022/09/13 09:26:56;;;;;;;;;;;21.40;95.40;;;;;;5035404;28;19912;-83
2022/09/13 09:29:21;;;;;;;;;;;21.40;93.70;;;;;;5036992;28;19948;-83
2022/09/13 09:31:57;;;;;;;;;;;21.40;92.40;;;;;;5038717;28;19968;-83
2022/09/13 09:34:25;;;;;;;;;;;21.40;92.20;;;;;;5042463;28;19917;-83
2022/09/13 09:37:09;;;;;;;;;;;21.30;92.60;;;;;;5044264;28;20016;-83
2022/09/13 09:39:38;;;;;;;;;;;21.50;92.50;;;;;;5038208;28;19908;-82
2022/09/13 09:42:04;;;;;;;;;;;21.70;90.80;;;;;;5033594;28;19983;-82
2022/09/13 09:44:32;;;;;;;;;;;22.00;94.10;;;;;;5045159;28;20004;-83
2022/09/13 09:46:58;;;;;;;;;;;22.10;91.80;;;;;;5043302;28;19989;-83
2022/09/13 09:52:16;;;;;;;;;;;22.20;89.70;;;;;;5032118;28;19915;-83
2022/09/13 09:54:42;;;;;;;;;;;22.30;89.70;;;;;;5043137;28;19936;-84
2022/09/13 09:57:07;;;;;;;;;;;22.50;92.50;;;;;;5044206;28;19908;-83
2022/09/13 09:59:33;;;;;;;;;;;22.90;91.10;;;;;;5040972;28;20011;-83
2022/09/13 10:02:00;;;;;;;;;;;23.10;91.70;;;;;;5043198;28;19919;-83
2022/09/13 10:04:27;;;;;;;;;;;23.20;90.50;;;;;;5039967;28;19909;-84
2022/09/13 10:07:12;;;;;;;;;;;23.60;81.50;;;;;;5039553;28;19936;-83
2022/09/13 10:09:38;;;;;;;;;;;23.40;80.90;;;;;;5055895;28;19912;-83
2022/09/13 10:12:04;;;;;;;;;;;23.50;87.80;;;;;;5042921;28;19999;-83
2022/09/13 10:14:37;;;;;;;;;;;23.60;85.70;;;;;;5041173;28;20015;-83
2022/09/13 10:17:22;;;;;;;;;;;23.90;88.30;;;;;;5040887;28;19913;-83
2022/09/13 10:19:51;;;;;;;;;;;24.40;80.50;;;;;;5047485;28;19921;-80
2022/09/13 10:22:17;;;;;;;;;;;24.00;80.80;;;;;;5030709;28;20422;-82
2022/09/13 10:24:43;;;;;;;;;;;24.40;76.90;;;;;;5043293;28;19920;-82
2022/09/13 10:27:27;;;;;;;;;;;24.30;74.50;;;;;;5035573;28;19917;-81
2022/09/13 10:29:58;;;;;;;;;;;24.80;69.30;;;;;;5040496;28;19995;-82
2022/09/13 10:32:24;;;;;;;;;;;24.80;69.30;;;;;;5051551;28;19920;-82
2022/09/13 10:34:50;;;;;;;;;;;25.30;75.20;;;;;;5037285;28;19916;-81
2022/09/13 10:37:30;;;;;;;;;;;25.40;67.20;;;;;;5029541;28;19991;-82
2022/09/13 10:39:55;;;;;;;;;;;25.70;65.80;;;;;;5044387;28;19908;-82
2022/09/13 10:42:22;;;;;;;;;;;27.00;67.00;;;;;;5035310;28;19932;-82
2022/09/13 10:44:54;;;;;;;;;;;26.40;66.60;;;;;;5040294;28;19909;-80
2022/09/13 10:47:19;;;;;;;;;;;26.40;66.00;;;;;;5053058;28;19919;-81
2022/09/13 10:49:54;;;;;;;;;;;26.50;61.20;;;;;;5031944;28;19966;-82
2022/09/13 10:52:24;;;;;;;;;;;26.70;64.70;;;;;;5036033;28;20000;-81
2022/09/13 10:54:49;;;;;;;;;;;27.50;65.30;;;;;;5057071;28;20560;-80
2022/09/13 10:57:32;;;;;;;;;;;27.50;59.60;;;;;;5050876;28;19923;-81
2022/09/13 10:59:57;;;;;;;;;;;27.70;60.20;;;;;;5041180;28;20293;-81
2022/09/13 11:02:32;;;;;;;;;;;27.00;59.70;;;;;;5039547;28;19917;-82
2022/09/13 11:05:07;;;;;;;;;;;27.00;59.70;;;;;;5032081;28;19920;-84
2022/09/13 11:07:35;;;;;;;;;;;26.70;64.50;;;;;;5037075;28;20286;-81
2022/09/13 11:10:01;;;;;;;;;;;26.70;61.20;;;;;;5041707;28;19912;-79
2022/09/13 11:12:32;;;;;;;;;;;27.30;57.20;;;;;;5044498;28;19923;-79
2022/09/13 11:15:12;;;;;;;;;;;27.90;53.90;;;;;;5056444;28;19917;-80
2022/09/13 11:17:46;;;;;;;;;;;28.30;57.10;;;;;;5042246;28;19912;-80
2022/09/13 11:20:12;;;;;;;;;;;28.60;58.20;;;;;;5048517;28;19958;-80
2022/09/13 11:22:49;;;;;;;;;;;29.60;50.60;;;;;;5047089;28;19916;-81
2022/09/13 11:25:20;;;;;;;;;;;29.20;45.60;;;;;;5051846;28;19966;-81
2022/09/13 11:27:55;;;;;;;;;;;29.40;49.00;;;;;;5036265;28;20563;-81
2022/09/13 11:30:22;;;;;;;;;;;29.90;45.80;;;;;;5044222;28;19917;-79
2022/09/13 11:33:03;;;;;;;;;;;29.50;48.30;;;;;;5047439;28;20248;-79
2022/09/13 11:35:34;;;;;;;;;;;29.60;51.20;;;;;;5040575;28;20350;-81
2022/09/13 11:38:07;;;;;;;;;;;30.80;42.50;;;;;;5045394;28;19916;-77
2022/09/13 11:40:42;;;;;;;;;;;30.00;42.20;;;;;;5041112;28;19971;-77
2022/09/13 11:43:16;;;;;;;;;;;30.40;39.50;;;;;;5038181;28;20376;-77
2022/09/13 11:45:42;;;;;;;;;;;31.30;40.50;;;;;;5040231;28;19909;-81
2022/09/13 11:48:13;;;;;;;;;;;31.70;38.80;;;;;;5049329;28;20390;-81
2022/09/13 11:50:39;;;;;;;;;;;31.80;36.80;;;;;;5052263;28;19912;-81
2022/09/13 11:53:20;;;;;;;;;;;31.30;36.80;;;;;;5040480;28;19917;-82
2022/09/13 11:55:58;;;;;;;;;;;31.10;36.40;;;;;;5033055;28;19916;-78
2022/09/13 11:58:36;;;;;;;;;;;30.70;35.90;;;;;;5040408;28;19909;-78
2022/09/13 12:01:07;;;;;;;;;;;31.30;30.00;;;;;;5043839;28;19912;-78
2022/09/13 12:03:32;;;;;;;;;;;32.40;33.50;;;;;;5041268;28;19913;-79
2022/09/13 12:06:03;;;;;;;;;;;32.50;29.10;;;;;;5045727;28;19909;-82
2022/09/13 12:08:37;;;;;;;;;;;33.20;28.90;;;;;;5037589;28;20495;-82
2022/09/13 12:11:05;;;;;;;;;;;34.20;29.30;;;;;;5044097;28;19908;-80
2022/09/13 12:13:41;;;;;;;;;;;33.60;26.70;;;;;;5041584;28;20408;-81
2022/09/13 12:16:08;;;;;;;;;;;33.40;29.00;;;;;;5041800;28;19920;-81
2022/09/13 12:18:45;;;;;;;;;;;34.30;27.10;;;;;;5046145;28;19919;-81
2022/09/13 12:21:11;;;;;;;;;;;34.30;24.90;;;;;;5042976;28;20311;-82
2022/09/13 12:23:40;;;;;;;;;;;32.90;25.30;;;;;;5051535;28;19908;-82
2022/09/13 12:26:13;;;;;;;;;;;31.80;19.50;;;;;;5044877;28;19940;-78
2022/09/13 12:28:50;;;;;;;;;;;30.10;25.60;;;;;;5044747;28;19998;-80
2022/09/13 12:31:18;;;;;;;;;;;30.30;25.60;;;;;;5038625;28;19912;-80
2022/09/13 12:33:44;;;;;;;;;;;30.00;26.50;;;;;;5039211;28;19909;-81
2022/09/13 12:36:16;;;;;;;;;;;30.20;31.20;;;;;;5033006;28;19912;-81
2022/09/13 12:38:44;;;;;;;;;;;31.90;33.20;;;;;;5041353;28;20296;-81
2022/09/13 12:41:13;;;;;;;;;;;32.20;31.80;;;;;;5043508;28;19920;-81
2022/09/13 12:43:57;;;;;;;;;;;31.70;34.80;;;;;;5049702;28;19920;-81
2022/09/13 12:46:36;;;;;;;;;;;31.40;31.60;;;;;;5049118;28;19916;-82
2022/09/13 12:49:13;;;;;;;;;;;31.10;32.70;;;;;;5050678;28;20395;-81
2022/09/13 12:51:57;;;;;;;;;;;30.50;35.50;;;;;;5047997;28;19909;-82
2022/09/13 12:54:32;;;;;;;;;;;30.20;40.30;;;;;;5051897;28;20403;-82
2022/09/13 12:57:04;;;;;;;;;;;29.90;36.10;;;;;;5037478;28;20086;-82
2022/09/13 12:59:37;;;;;;;;;;;29.60;43.90;;;;;;5041187;28;20377;-81
2022/09/13 13:02:20;;;;;;;;;;;30.00;43.50;;;;;;5041644;28;20389;-81
2022/09/13 13:04:49;;;;;;;;;;;28.90;43.10;;;;;;5046133;28;20373;-81
2022/09/13 13:07:19;;;;;;;;;;;28.40;44.60;;;;;;5034437;28;19940;-81
2022/09/13 13:09:47;;;;;;;;;;;28.60;46.40;;;;;;5039954;28;19959;-81
2022/09/13 13:12:28;;;;;;;;;;;28.90;43.20;;;;;;5044280;28;19920;-81
2022/09/13 13:14:54;;;;;;;;;;;28.80;44.20;;;;;;5048990;28;19923;-82
2022/09/13 13:17:38;;;;;;;;;;;29.20;43.20;;;;;;5041324;28;19913;-81
2022/09/13 13:20:22;;;;;;;;;;;28.90;44.70;;;;;;5036071;28;19983;-78
2022/09/13 13:22:48;;;;;;;;;;;29.20;43.00;;;;;;5045151;28;19909;-77
2022/09/13 13:25:32;;;;;;;;;;;28.90;43.20;;;;;;5035688;28;20323;-75
2022/09/13 13:27:58;;;;;;;;;;;29.30;46.40;;;;;;5038893;28;19913;-75
2022/09/13 13:30:33;;;;;;;;;;;29.50;42.50;;;;;;5045919;28;19962;-75
2022/09/13 13:33:25;;;;;;;;;;;28.70;43.30;;;;;;5039842;28;19924;-75
2022/09/13 13:35:50;;;;;;;;;;;28.20;43.20;;;;;;5042164;28;20372;-75
2022/09/13 13:38:22;;;;;;;;;;;27.70;45.70;;;;;;5047005;28;19970;-75
2022/09/13 13:40:49;;;;;;;;;;;27.30;48.70;;;;;;5048515;28;19923;-75
2022/09/13 13:43:34;;;;;;;;;;;27.10;49.10;;;;;;5049500;28;19916;-75
2022/09/13 13:46:09;;;;;;;;;;;27.00;51.90;;;;;;5047726;28;19909;-75
2022/09/13 13:48:39;;;;;;;;;;;26.70;50.90;;;;;;5048749;28;19919;-74
2022/09/13 13:51:14;;;;;;;;;;;26.50;52.20;;;;;;5039928;28;19913;-75
2022/09/13 13:53:45;;;;;;;;;;;26.50;51.90;;;;;;5043505;28;19913;-75
2022/09/13 13:56:14;;;;;;;;;;;26.60;52.10;;;;;;5040465;28;19971;-75
2022/09/13 13:58:42;;;;;;;;;;;26.60;51.60;;;;;;5048842;28;19966;-75
2022/09/13 14:01:12;;;;;;;;;;;26.80;54.20;;;;;;5045613;28;19948;-75
2022/09/13 14:03:58;;;;;;;;;;;27.00;52.60;;;;;;5049140;28;20491;-75
2022/09/13 14:06:28;;;;;;;;;;;26.60;56.20;;;;;;5039786;28;19912;-75
2022/09/13 14:09:01;;;;;;;;;;;26.40;54.20;;;;;;5042917;28;19913;-76
2022/09/13 14:11:45;;;;;;;;;;;26.50;52.40;;;;;;5034749;28;19963;-76
2022/09/13 14:14:10;;;;;;;;;;;26.20;58.40;;;;;;5038445;28;20396;-77
2022/09/13 14:16:57;;;;;;;;;;;26.70;55.30;;;;;;5032911;28;19917;-76
2022/09/13 14:19:27;;;;;;;;;;;27.10;53.00;;;;;;5032794;28;19949;-76
2022/09/13 14:22:15;;;;;;;;;;;26.70;54.90;;;;;;5032335;28;19924;-75
2022/09/13 14:24:42;;;;;;;;;;;26.70;53.60;;;;;;5042488;28;20396;-76
2022/09/13 14:27:21;;;;;;;;;;;26.70;55.00;;;;;;5034943;28;19913;-77
2022/09/13 14:30:08;;;;;;;;;;;26.50;55.00;;;;;;5035183;28;19955;-76
2022/09/13 14:32:41;;;;;;;;;;;26.40;55.10;;;;;;5041169;28;20010;-77
2022/09/13 14:35:23;;;;;;;;;;;26.50;55.80;;;;;;5045029;28;19908;-78
2022/09/13 14:37:49;;;;;;;;;;;26.60;55.70;;;;;;5045599;28;19938;-76